createdAt,value
2019-04-01T00:01:33.468Z,0.50
2019-04-01T00:03:59.416Z,0.50
2019-04-01T00:06:25.397Z,0.40
2019-04-01T00:08:52.086Z,0.40
2019-04-01T00:11:18.048Z,0.30
2019-04-01T00:13:44.749Z,0.53
2019-04-01T00:16:10.721Z,0.57
2019-04-01T00:18:37.402Z,0.30
2019-04-01T00:21:03.394Z,0.50
2019-04-01T00:23:29.356Z,1.03
2019-04-01T00:25:55.337Z,0.40
2019-04-01T00:28:22.102Z,0.30
2019-04-01T00:30:48.062Z,0.43
2019-04-01T00:33:14.037Z,0.43
2019-04-01T00:35:40.023Z,0.50
2019-04-01T00:38:06.721Z,0.30
2019-04-01T00:40:32.730Z,0.73
2019-04-01T00:42:58.685Z,0.50
2019-04-01T00:45:24.699Z,0.50
2019-04-01T00:47:50.698Z,0.60
2019-04-01T00:50:16.661Z,0.40
2019-04-01T00:52:42.667Z,0.43
2019-04-01T00:55:08.622Z,0.70
2019-04-01T00:57:34.610Z,0.40
2019-04-01T01:00:00.582Z,0.50
2019-04-01T01:02:27.305Z,0.40
2019-04-01T01:04:53.256Z,0.40
2019-04-01T01:07:19.249Z,0.30
2019-04-01T01:09:45.211Z,0.30
2019-04-01T01:12:11.214Z,0.60
2019-04-01T01:14:37.996Z,0.53
2019-04-01T01:17:03.965Z,0.33
2019-04-01T01:19:30.674Z,0.50
2019-04-01T01:21:56.660Z,0.30
2019-04-01T01:24:22.617Z,0.50
2019-04-01T01:26:48.596Z,0.23
2019-04-01T01:29:14.564Z,0.77
2019-04-01T01:31:40.535Z,0.43
2019-04-01T01:34:06.483Z,0.40
2019-04-01T01:36:32.459Z,0.33
2019-04-01T01:38:58.401Z,0.43
2019-04-01T01:41:25.114Z,0.70
2019-04-01T01:43:51.114Z,0.40
2019-04-01T01:46:17.084Z,0.47
2019-04-01T01:48:43.809Z,0.53
2019-04-01T01:51:09.761Z,0.50
2019-04-01T01:53:35.754Z,0.40
2019-04-01T01:56:01.696Z,0.37
2019-04-01T01:58:28.404Z,0.40
2019-04-01T02:00:54.348Z,0.57
2019-04-01T02:03:21.049Z,0.30
2019-04-01T02:05:47.016Z,0.50
2019-04-01T02:08:13.750Z,0.50
2019-04-01T02:10:40.454Z,0.40
2019-04-01T02:13:06.440Z,0.53
2019-04-01T02:15:32.389Z,0.30
2019-04-01T02:17:58.344Z,0.43
2019-04-01T02:20:24.291Z,0.40
2019-04-01T02:22:51.003Z,0.47
2019-04-01T02:25:16.984Z,0.33
2019-04-01T02:27:42.978Z,0.73
2019-04-01T02:30:09.666Z,0.30
2019-04-01T02:32:35.634Z,0.30
2019-04-01T02:35:01.637Z,0.33
2019-04-01T02:37:28.370Z,0.80
2019-04-01T02:39:54.371Z,0.47
2019-04-01T02:42:20.343Z,0.70
2019-04-01T02:44:47.061Z,0.47
2019-04-01T02:47:13.016Z,0.93
2019-04-01T02:49:38.986Z,0.33
2019-04-01T02:52:04.950Z,0.50
2019-04-01T02:54:31.674Z,0.50
2019-04-01T02:56:58.392Z,0.40
2019-04-01T02:59:24.401Z,0.67
2019-04-01T03:01:50.380Z,0.40
2019-04-01T03:04:16.370Z,0.43
2019-04-01T03:06:42.324Z,0.30
2019-04-01T03:09:09.076Z,0.90
2019-04-01T03:11:35.052Z,0.30
2019-04-01T03:14:01.043Z,0.40
2019-04-01T03:16:27.012Z,0.20
2019-04-01T03:18:53.771Z,0.50
2019-04-01T03:21:20.471Z,0.40
2019-04-01T03:23:46.436Z,0.33
2019-04-01T03:26:13.154Z,0.67
2019-04-01T03:28:39.105Z,0.50
2019-04-01T03:31:05.110Z,0.83
2019-04-01T03:33:31.093Z,0.20
2019-04-01T03:35:57.087Z,0.60
2019-04-01T03:38:27.490Z,0.57
2019-04-01T03:40:49.076Z,0.70
2019-04-01T03:43:15.023Z,0.80
2019-04-01T03:45:41.764Z,0.60
2019-04-01T03:48:08.460Z,1.20
2019-04-01T03:50:34.467Z,0.53
2019-04-01T03:53:00.548Z,0.30
2019-04-01T03:55:26.471Z,0.70
2019-04-01T03:57:52.422Z,0.60
2019-04-01T04:00:19.230Z,0.50
2019-04-01T04:02:45.216Z,0.60
2019-04-01T04:05:11.205Z,0.23
2019-04-01T04:07:37.161Z,0.90
2019-04-01T04:10:03.161Z,0.63
2019-04-01T04:12:29.099Z,0.70
2019-04-01T04:14:55.069Z,0.60
2019-04-01T04:17:21.812Z,0.33
2019-04-01T04:19:48.527Z,0.30
2019-04-01T04:22:14.500Z,1.13
2019-04-01T04:24:40.463Z,0.40
2019-04-01T04:27:10.887Z,0.50
2019-04-01T04:29:32.431Z,0.40
2019-04-01T04:31:58.419Z,0.50
2019-04-01T04:34:24.365Z,0.60
2019-04-01T04:36:50.350Z,0.70
2019-04-01T04:39:16.551Z,0.67
2019-04-01T04:41:43.268Z,0.50
2019-04-01T04:44:09.231Z,0.70
2019-04-01T04:46:35.193Z,0.33
2019-04-01T04:49:01.153Z,0.40
2019-04-01T04:51:27.879Z,0.60
2019-04-01T04:53:53.833Z,0.80
2019-04-01T04:56:19.818Z,0.67
2019-04-01T04:58:45.763Z,0.80
2019-04-01T05:01:12.496Z,0.30
2019-04-01T05:03:39.231Z,1.30
2019-04-01T05:06:05.181Z,0.63
2019-04-01T05:08:31.225Z,0.60
2019-04-01T05:10:57.175Z,0.77
2019-04-01T05:13:23.173Z,0.50
2019-04-01T05:15:49.117Z,0.50
2019-04-01T05:18:15.112Z,0.90
2019-04-01T05:20:41.074Z,0.70
2019-04-01T05:23:07.058Z,0.53
2019-04-01T05:25:33.023Z,0.70
2019-04-01T05:27:59.003Z,1.23
2019-04-01T05:30:24.958Z,0.70
2019-04-01T05:32:50.935Z,0.63
2019-04-01T05:35:16.894Z,0.73
2019-04-01T05:37:42.890Z,0.90
2019-04-01T05:40:08.842Z,0.70
2019-04-01T05:42:34.817Z,0.70
2019-04-01T05:45:00.784Z,0.70
2019-04-01T05:47:26.765Z,1.13
2019-04-01T05:49:52.744Z,0.63
2019-04-01T05:52:18.726Z,0.90
2019-04-01T05:54:44.690Z,0.50
2019-04-01T05:57:10.679Z,0.90
2019-04-01T05:59:36.631Z,0.70
2019-04-01T06:02:02.580Z,0.83
2019-04-01T06:04:29.296Z,0.97
2019-04-01T06:06:55.248Z,0.83
2019-04-01T06:09:21.980Z,1.00
2019-04-01T06:11:48.669Z,1.30
2019-04-01T06:14:14.657Z,0.80
2019-04-01T06:16:41.357Z,1.43
2019-04-01T06:19:07.332Z,0.63
2019-04-01T06:21:33.295Z,0.93
2019-04-01T06:23:59.286Z,1.40
2019-04-01T06:26:25.307Z,0.87
2019-04-01T06:28:51.293Z,1.30
2019-04-01T06:31:18.004Z,0.80
2019-04-01T06:33:44.002Z,0.83
2019-04-01T06:36:09.951Z,1.07
2019-04-01T06:38:35.928Z,0.83
2019-04-01T06:41:01.876Z,1.20
2019-04-01T06:43:27.935Z,1.33
2019-04-01T06:45:53.855Z,1.00
2019-04-01T06:48:20.651Z,0.90
2019-04-01T06:50:46.606Z,1.03
2019-04-01T06:53:12.552Z,1.77
2019-04-01T06:55:38.546Z,1.17
2019-04-01T06:58:04.491Z,0.90
2019-04-01T07:00:30.477Z,1.00
2019-04-01T07:02:56.457Z,1.00
2019-04-01T07:05:23.194Z,1.07
2019-04-01T07:07:49.884Z,1.20
2019-04-01T07:10:15.851Z,1.03
2019-04-01T07:12:41.804Z,1.17
2019-04-01T07:15:07.797Z,1.37
2019-04-01T07:17:34.514Z,1.20
2019-04-01T07:20:00.510Z,1.20
2019-04-01T07:22:26.470Z,1.30
2019-04-01T07:24:52.466Z,1.23
2019-04-01T07:27:18.446Z,1.30
2019-04-01T07:29:44.427Z,1.47
2019-04-01T07:32:10.405Z,1.40
2019-04-01T07:34:36.397Z,1.30
2019-04-01T07:37:03.103Z,1.50
2019-04-01T07:39:29.098Z,1.30
2019-04-01T07:41:55.090Z,1.47
2019-04-01T07:44:21.068Z,1.27
2019-04-01T07:46:47.065Z,1.63
2019-04-01T07:49:13.005Z,1.30
2019-04-01T07:51:39.027Z,1.23
2019-04-01T07:54:05.015Z,1.10
2019-04-01T07:56:31.037Z,1.57
2019-04-01T07:58:57.022Z,1.30
2019-04-01T08:01:22.996Z,1.10
2019-04-01T08:03:48.944Z,0.97
2019-04-01T08:06:14.915Z,1.63
2019-04-01T08:08:41.615Z,1.10
2019-04-01T08:11:07.606Z,1.13
2019-04-01T08:13:33.556Z,1.20
2019-04-01T08:15:59.543Z,1.00
2019-04-01T08:18:25.488Z,1.07
2019-04-01T08:20:51.495Z,1.33
2019-04-01T08:23:17.453Z,1.30
2019-04-01T08:25:43.443Z,1.40
2019-04-01T08:28:09.398Z,1.37
2019-04-01T08:30:35.387Z,1.30
2019-04-01T08:33:01.386Z,1.20
2019-04-01T08:35:28.102Z,1.40
2019-04-01T08:37:54.092Z,1.20
2019-04-01T08:40:20.082Z,1.40
2019-04-01T08:42:48.955Z,1.20
2019-04-01T08:45:12.803Z,1.10
2019-04-01T08:47:38.795Z,1.13
2019-04-01T08:50:04.771Z,1.33
2019-04-01T08:52:31.515Z,1.53
2019-04-01T08:54:58.229Z,1.43
2019-04-01T08:57:24.205Z,1.10
2019-04-01T08:59:50.236Z,1.40
2019-04-01T09:02:18.169Z,1.20
2019-04-01T09:04:42.252Z,1.10
2019-04-01T09:07:08.980Z,1.30
2019-04-01T09:09:34.938Z,1.20
2019-04-01T09:12:00.929Z,1.20
2019-04-01T09:14:26.902Z,1.17
2019-04-01T09:16:52.895Z,1.03
2019-04-01T09:19:19.597Z,1.30
2019-04-01T09:21:45.602Z,1.20
2019-04-01T09:24:11.544Z,1.50
2019-04-01T09:26:37.565Z,1.20
2019-04-01T09:29:03.556Z,1.40
2019-04-01T09:31:29.520Z,1.03
2019-04-01T09:33:55.529Z,0.93
2019-04-01T09:36:21.477Z,1.10
2019-04-01T09:38:48.211Z,1.27
2019-04-01T09:41:14.923Z,1.17
2019-04-01T09:43:40.903Z,1.30
2019-04-01T09:46:07.623Z,1.00
2019-04-01T09:48:34.360Z,1.20
2019-04-01T09:51:01.077Z,1.33
2019-04-01T09:53:27.073Z,1.30
2019-04-01T09:55:53.028Z,1.10
2019-04-01T09:58:19.013Z,1.57
2019-04-01T10:00:44.988Z,1.10
2019-04-01T10:03:10.963Z,1.00
2019-04-01T10:05:36.928Z,1.10
2019-04-01T10:08:02.909Z,1.10
2019-04-01T10:10:28.876Z,1.43
2019-04-01T10:12:54.860Z,0.97
2019-04-01T10:15:20.819Z,1.00
2019-04-01T10:17:46.803Z,0.80
2019-04-01T10:20:12.755Z,1.20
2019-04-01T10:22:38.752Z,1.10
2019-04-01T10:25:04.708Z,1.23
2019-04-01T10:27:30.725Z,1.10
2019-04-01T10:29:56.680Z,1.17
2019-04-01T10:32:22.678Z,1.03
2019-04-01T10:34:48.656Z,1.30
2019-04-01T10:37:14.613Z,1.37
2019-04-01T10:39:40.613Z,1.13
2019-04-01T10:42:06.568Z,0.87
2019-04-01T10:44:32.551Z,1.00
2019-04-01T10:46:58.596Z,1.30
2019-04-01T10:49:24.580Z,1.03
2019-04-01T10:51:50.604Z,1.40
2019-04-01T10:54:17.386Z,1.70
2019-04-01T10:56:43.383Z,1.40
2019-04-01T10:59:09.378Z,1.07
2019-04-01T11:01:35.343Z,1.30
2019-04-01T11:04:02.124Z,1.23
2019-04-01T11:06:28.839Z,1.30
2019-04-01T11:08:54.841Z,1.67
2019-04-01T11:11:20.804Z,1.10
2019-04-01T11:13:46.809Z,1.17
2019-04-01T11:16:12.791Z,1.40
2019-04-01T11:18:38.766Z,1.40
2019-04-01T11:21:05.141Z,0.93
2019-04-01T11:23:30.786Z,1.03
2019-04-01T11:25:56.740Z,1.10
2019-04-01T11:28:22.745Z,1.17
2019-04-01T11:30:48.722Z,1.50
2019-04-01T11:33:14.716Z,1.07
2019-04-01T11:35:40.708Z,1.37
2019-04-01T11:38:06.701Z,1.10
2019-04-01T11:40:32.710Z,0.97
2019-04-01T11:42:59.391Z,1.20
2019-04-01T11:45:25.377Z,1.30
2019-04-01T11:47:51.359Z,1.20
2019-04-01T11:50:17.392Z,1.10
2019-04-01T11:52:44.115Z,1.10
2019-04-01T11:55:10.100Z,1.20
2019-04-01T11:57:36.061Z,1.10
2019-04-01T12:00:02.059Z,1.00
2019-04-01T12:02:28.030Z,0.90
2019-04-01T12:04:54.779Z,1.10
2019-04-01T12:07:21.480Z,0.90
2019-04-01T12:09:47.459Z,1.20
2019-04-01T12:12:23.435Z,1.13
2019-04-01T12:14:39.493Z,1.27
2019-04-01T12:17:05.468Z,1.00
2019-04-01T12:19:31.445Z,1.07
2019-04-01T12:21:57.444Z,1.10
2019-04-01T12:24:23.397Z,1.17
2019-04-01T12:26:49.380Z,0.90
2019-04-01T12:29:15.334Z,1.27
2019-04-01T12:31:41.352Z,1.30
2019-04-01T12:34:08.046Z,1.00
2019-04-01T12:36:34.073Z,1.27
2019-04-01T12:39:00.039Z,1.53
2019-04-01T12:41:26.783Z,1.23
2019-04-01T12:43:52.739Z,1.20
2019-04-01T12:46:18.704Z,1.00
2019-04-01T12:48:44.673Z,1.23
2019-04-01T12:51:10.653Z,1.13
2019-04-01T12:53:37.395Z,1.30
2019-04-01T12:56:04.159Z,1.33
2019-04-01T12:58:30.100Z,1.20
2019-04-01T13:00:56.101Z,0.87
2019-04-01T13:03:22.830Z,1.10
2019-04-01T13:05:49.566Z,1.17
2019-04-01T13:08:16.270Z,1.00
2019-04-01T13:10:43.078Z,1.00
2019-04-01T13:13:09.034Z,1.17
2019-04-01T13:15:34.990Z,1.07
2019-04-01T13:18:00.975Z,1.10
2019-04-01T13:20:37.615Z,0.87
2019-04-01T13:22:52.976Z,1.07
2019-04-01T13:25:18.960Z,0.77
2019-04-01T13:27:44.965Z,1.03
2019-04-01T13:30:10.947Z,1.30
2019-04-01T13:32:37.664Z,1.10
2019-04-01T13:35:04.352Z,1.37
2019-04-01T13:37:30.339Z,0.80
2019-04-01T13:39:57.050Z,0.97
2019-04-01T13:42:24.867Z,0.90
2019-04-01T13:44:49.035Z,1.07
2019-04-01T13:47:15.049Z,1.10
2019-04-01T13:49:41.754Z,0.90
2019-04-01T13:52:07.766Z,0.93
2019-04-01T13:54:33.719Z,1.20
2019-04-01T13:57:00.434Z,0.90
2019-04-01T13:59:26.421Z,1.20
2019-04-01T14:01:52.436Z,1.10
2019-04-01T14:04:18.399Z,1.10
2019-04-01T14:06:44.373Z,1.13
2019-04-01T14:09:10.369Z,1.00
2019-04-01T14:11:36.330Z,1.10
2019-04-01T14:14:02.307Z,0.90
2019-04-01T14:16:28.257Z,1.17
2019-04-01T14:18:54.976Z,1.27
2019-04-01T14:21:21.678Z,1.30
2019-04-01T14:23:47.665Z,1.07
2019-04-01T14:26:14.359Z,1.03
2019-04-01T14:28:40.358Z,1.17
2019-04-01T14:31:06.367Z,0.97
2019-04-01T14:33:32.778Z,1.43
2019-04-01T14:35:58.384Z,1.20
2019-04-01T14:38:25.119Z,1.40
2019-04-01T14:40:51.104Z,1.10
2019-04-01T14:43:17.096Z,1.30
2019-04-01T14:45:43.055Z,1.10
2019-04-01T14:48:09.072Z,1.13
2019-04-01T14:50:35.074Z,1.10
2019-04-01T14:53:01.076Z,1.10
2019-04-01T14:55:27.071Z,1.23
2019-04-01T14:57:53.037Z,1.10
2019-04-01T15:00:19.035Z,1.30
2019-04-01T15:02:45.754Z,1.03
2019-04-01T15:05:12.506Z,1.17
2019-04-01T15:07:39.232Z,1.20
2019-04-01T15:10:05.224Z,1.20
2019-04-01T15:12:31.198Z,1.20
2019-04-01T15:14:57.929Z,1.20
2019-04-01T15:17:24.654Z,1.23
2019-04-01T15:19:50.645Z,1.20
2019-04-01T15:22:16.593Z,1.20
2019-04-01T15:24:42.573Z,1.40
2019-04-01T15:27:08.520Z,1.10
2019-04-01T15:29:34.503Z,1.13
2019-04-01T15:32:01.197Z,1.20
2019-04-01T15:34:27.202Z,1.30
2019-04-01T15:36:53.176Z,1.07
2019-04-01T15:39:20.088Z,1.40
2019-04-01T15:41:45.948Z,1.43
2019-04-01T15:44:12.678Z,1.37
2019-04-01T15:46:38.730Z,1.57
2019-04-01T15:49:04.724Z,1.10
2019-04-01T15:51:31.465Z,1.30
2019-04-01T15:53:57.442Z,1.23
2019-04-01T15:56:23.421Z,1.10
2019-04-01T15:58:50.976Z,1.17
2019-04-01T16:01:16.214Z,1.30
2019-04-01T16:03:42.189Z,1.50
2019-04-01T16:06:08.175Z,1.40
2019-04-01T16:08:34.143Z,1.27
2019-04-01T16:11:00.862Z,1.30
2019-04-01T16:13:26.825Z,2.20
2019-04-01T16:15:53.558Z,1.33
2019-04-01T16:18:20.274Z,1.20
2019-04-01T16:20:46.269Z,1.37
2019-04-01T16:23:12.244Z,1.43
2019-04-01T16:25:38.256Z,1.20
2019-04-01T16:28:04.956Z,1.53
2019-04-01T16:30:30.922Z,1.27
2019-04-01T16:32:58.386Z,0.93
2019-04-01T16:35:23.663Z,1.30
2019-04-01T16:37:59.250Z,1.43
2019-04-01T16:40:22.584Z,1.40
2019-04-01T16:42:49.344Z,1.27
2019-04-01T16:45:16.039Z,1.20
2019-04-01T16:47:42.035Z,1.20
2019-04-01T16:50:08.010Z,1.33
2019-04-01T16:52:34.006Z,1.37
2019-04-01T16:54:59.989Z,1.40
2019-04-01T16:57:25.996Z,1.40
2019-04-01T16:59:51.960Z,1.37
2019-04-01T17:02:18.611Z,1.77
2019-04-01T17:04:46.164Z,1.33
2019-04-01T17:07:10.035Z,1.27
2019-04-01T17:09:36.027Z,1.20
2019-04-01T17:12:02.754Z,1.60
2019-04-01T17:14:29.453Z,1.20
2019-04-01T17:16:55.444Z,1.03
2019-04-01T17:19:21.404Z,1.20
2019-04-01T17:21:47.359Z,1.37
2019-04-01T17:24:13.360Z,1.20
2019-04-01T17:26:39.336Z,1.20
2019-04-01T17:29:05.328Z,1.30
2019-04-01T17:31:32.029Z,1.20
2019-04-01T17:33:58.052Z,1.30
2019-04-01T17:36:24.095Z,1.20
2019-04-01T17:38:50.107Z,1.20
2019-04-01T17:41:16.117Z,1.47
2019-04-01T17:43:42.095Z,1.37
2019-04-01T17:46:08.228Z,1.20
2019-04-01T17:48:34.136Z,1.20
2019-04-01T17:51:00.850Z,1.37
2019-04-01T17:53:26.866Z,1.47
2019-04-01T17:55:53.620Z,1.27
2019-04-01T17:58:19.633Z,1.67
2019-04-01T18:00:45.621Z,1.60
2019-04-01T18:03:11.662Z,1.30
2019-04-01T18:05:37.642Z,1.47
2019-04-01T18:08:04.941Z,1.50
2019-04-01T18:10:29.693Z,1.23
2019-04-01T18:12:55.688Z,1.80
2019-04-01T18:15:21.653Z,1.43
2019-04-01T18:17:47.680Z,1.53
2019-04-01T18:20:13.688Z,2.00
2019-04-01T18:22:39.696Z,1.73
2019-04-01T18:25:05.762Z,2.00
2019-04-01T18:27:31.715Z,1.80
2019-04-01T18:29:57.761Z,2.10
2019-04-01T18:32:24.464Z,1.93
2019-04-01T18:34:50.474Z,2.07
2019-04-01T18:37:16.473Z,2.73
2019-04-01T18:39:48.276Z,2.10
2019-04-01T18:42:08.514Z,2.30
2019-04-01T18:44:34.519Z,2.37
2019-04-01T18:47:03.823Z,1.77
2019-04-01T18:49:27.354Z,2.13
2019-04-01T18:51:53.322Z,1.90
2019-04-01T18:54:19.316Z,2.53
2019-04-01T18:56:47.665Z,3.10
2019-04-01T18:59:11.360Z,2.77
2019-04-01T19:01:37.330Z,2.73
2019-04-01T19:04:03.334Z,3.17
2019-04-01T19:06:29.321Z,3.13
2019-04-01T19:09:08.381Z,2.63
2019-04-01T19:11:21.312Z,2.13
2019-04-01T19:13:47.271Z,1.97
2019-04-01T19:16:16.436Z,2.27
2019-04-01T19:18:39.719Z,1.90
2019-04-01T19:21:06.107Z,2.23
2019-04-01T19:23:32.849Z,1.70
2019-04-01T19:25:59.575Z,2.00
2019-04-01T19:28:25.558Z,2.17
2019-04-01T19:30:51.555Z,1.90
2019-04-01T19:33:17.531Z,1.50
2019-04-01T19:35:43.545Z,1.87
2019-04-01T19:38:09.539Z,1.77
2019-04-01T19:40:35.547Z,1.60
2019-04-01T19:43:03.617Z,2.03
2019-04-01T19:45:27.597Z,1.57
2019-04-01T19:47:53.559Z,2.00
2019-04-01T19:50:19.548Z,1.10
2019-04-01T19:52:45.534Z,1.30
2019-04-01T19:55:11.524Z,1.40
2019-04-01T19:57:37.488Z,1.53
2019-04-01T20:00:04.313Z,1.87
2019-04-01T20:02:30.324Z,1.30
2019-04-01T20:04:56.322Z,1.50
2019-04-01T20:07:22.301Z,1.03
2019-04-01T20:09:48.997Z,1.43
2019-04-01T20:12:14.998Z,1.50
2019-04-01T20:14:40.959Z,1.43
2019-04-01T20:17:06.969Z,1.73
2019-04-01T20:19:33.198Z,1.43
2019-04-01T20:21:58.970Z,1.47
2019-04-01T20:24:25.684Z,1.50
2019-04-01T20:26:52.454Z,1.93
2019-04-01T20:29:19.146Z,1.80
2019-04-01T20:31:45.163Z,1.80
2019-04-01T20:34:19.593Z,1.40
2019-04-01T20:36:37.211Z,1.50
2019-04-01T20:39:03.182Z,1.70
2019-04-01T20:41:29.942Z,1.23
2019-04-01T20:43:55.906Z,1.50
2019-04-01T20:46:21.909Z,1.30
2019-04-01T20:48:47.889Z,1.20
2019-04-01T20:51:14.619Z,1.30
2019-04-01T20:53:41.390Z,1.20
2019-04-01T20:56:07.387Z,1.50
2019-04-01T20:58:34.149Z,1.60
2019-04-01T21:01:00.173Z,1.20
2019-04-01T21:03:26.226Z,1.40
2019-04-01T21:05:53.218Z,1.47
2019-04-01T21:08:19.025Z,1.30
2019-04-01T21:10:44.983Z,1.40
2019-04-01T21:13:10.988Z,1.17
2019-04-01T21:15:37.719Z,1.33
2019-04-01T21:18:04.455Z,1.53
2019-04-01T21:20:31.190Z,1.60
2019-04-01T21:22:57.188Z,1.37
2019-04-01T21:25:23.140Z,1.47
2019-04-01T21:27:49.136Z,1.53
2019-04-01T21:30:15.112Z,1.20
2019-04-01T21:32:41.109Z,1.40
2019-04-01T21:35:07.112Z,1.57
2019-04-01T21:37:33.107Z,1.30
2019-04-01T21:39:59.232Z,1.33
2019-04-01T21:42:25.154Z,1.27
2019-04-01T21:44:51.153Z,1.30
2019-04-01T21:47:17.181Z,1.60
2019-04-01T21:49:43.133Z,1.63
2019-04-01T21:52:09.126Z,1.33
2019-04-01T21:54:35.125Z,1.53
2019-04-01T21:57:01.841Z,1.43
2019-04-01T21:59:27.842Z,1.37
2019-04-01T22:01:53.833Z,1.20
2019-04-01T22:04:19.836Z,1.70
2019-04-01T22:06:45.815Z,1.20
2019-04-01T22:09:11.878Z,1.67
2019-04-01T22:11:37.875Z,1.20
2019-04-01T22:14:03.853Z,1.20
2019-04-01T22:16:29.813Z,1.70
2019-04-01T22:18:55.818Z,1.20
2019-04-01T22:21:21.786Z,1.20
2019-04-01T22:23:47.774Z,1.07
2019-04-01T22:26:13.748Z,0.93
2019-04-01T22:28:40.491Z,1.37
2019-04-01T22:31:07.216Z,1.20
2019-04-01T22:33:33.207Z,1.50
2019-04-01T22:35:59.194Z,1.40
2019-04-01T22:38:25.538Z,1.30
2019-04-01T22:40:51.229Z,1.30
2019-04-01T22:43:17.942Z,0.90
2019-04-01T22:45:43.950Z,1.40
2019-04-01T22:48:09.923Z,1.20
2019-04-01T22:50:35.918Z,1.17
2019-04-01T22:53:04.278Z,1.10
2019-04-01T22:55:29.403Z,1.37
2019-04-01T22:57:56.101Z,1.23
2019-04-01T23:00:22.084Z,1.00
2019-04-01T23:02:48.062Z,1.40
2019-04-01T23:05:14.039Z,1.13
2019-04-01T23:07:40.012Z,1.17
2019-04-01T23:10:06.003Z,1.30
2019-04-01T23:12:31.986Z,1.20
2019-04-01T23:14:58.705Z,1.40
2019-04-01T23:17:25.417Z,1.30
2019-04-01T23:19:51.415Z,1.10
2019-04-01T23:22:17.408Z,1.30
2019-04-01T23:24:44.142Z,1.30
2019-04-01T23:27:10.129Z,1.13
2019-04-01T23:29:36.118Z,1.27
2019-04-01T23:32:02.110Z,1.60
2019-04-01T23:34:28.076Z,1.47
2019-04-01T23:36:54.066Z,1.30
2019-04-01T23:39:20.777Z,1.67
2019-04-01T23:41:46.765Z,1.20
2019-04-01T23:44:12.729Z,1.20
2019-04-01T23:46:38.723Z,1.23
2019-04-01T23:49:04.683Z,1.30
2019-04-01T23:51:30.693Z,1.37
2019-04-01T23:53:56.651Z,1.10
2019-04-01T23:56:23.387Z,1.17
2019-04-01T23:58:50.233Z,1.33
